createdAt,value
2023-01-12T00:01:46.044Z,69.50
2023-01-12T00:04:14.345Z,69.70
2023-01-12T00:06:42.389Z,69.60
2023-01-12T00:09:10.748Z,69.50
2023-01-12T00:11:38.959Z,69.60
2023-01-12T00:14:07.252Z,69.70
2023-01-12T00:16:37.813Z,69.70
2023-01-12T00:19:10.782Z,69.80
2023-01-12T00:21:56.361Z,69.80
2023-01-12T00:24:25.605Z,69.40
2023-01-12T00:26:53.743Z,69.10
2023-01-12T00:29:21.647Z,69.00
2023-01-12T00:31:50.931Z,69.00
2023-01-12T00:34:18.815Z,69.30
2023-01-12T00:36:47.039Z,69.10
2023-01-12T00:39:15.147Z,69.20
2023-01-12T00:42:00.713Z,69.30
2023-01-12T00:44:46.277Z,69.30
2023-01-12T00:47:15.579Z,69.50
2023-01-12T00:49:43.570Z,69.70
2023-01-12T00:52:18.244Z,69.60
2023-01-12T00:54:53.095Z,69.60
2023-01-12T00:57:20.946Z,69.50
2023-01-12T00:59:48.874Z,69.70
2023-01-12T01:02:18.186Z,69.70
2023-01-12T01:04:46.113Z,69.90
2023-01-12T01:07:15.958Z,69.80
2023-01-12T01:09:44.219Z,69.30
2023-01-12T01:12:12.142Z,69.10
2023-01-12T01:14:40.034Z,69.10
2023-01-12T01:17:09.667Z,69.20
2023-01-12T01:19:39.084Z,69.50
2023-01-12T01:22:07.015Z,69.30
2023-01-12T01:24:34.906Z,69.30
2023-01-12T01:27:02.788Z,69.40
2023-01-12T01:29:31.067Z,69.40
2023-01-12T01:31:58.980Z,69.60
2023-01-12T01:34:26.962Z,69.80
2023-01-12T01:36:56.250Z,69.70
2023-01-12T01:39:24.134Z,69.60
2023-01-12T01:41:52.035Z,69.60
2023-01-12T01:44:51.659Z,69.70
2023-01-12T01:47:24.759Z,69.70
2023-01-12T01:49:53.647Z,69.90
2023-01-12T01:52:24.071Z,69.80
2023-01-12T01:54:53.789Z,69.60
2023-01-12T01:57:21.700Z,69.20
2023-01-12T01:59:51.333Z,68.90
2023-01-12T02:02:19.295Z,69.00
2023-01-12T02:04:47.208Z,69.20
2023-01-12T02:07:15.072Z,69.20
2023-01-12T02:09:44.314Z,69.10
2023-01-12T02:12:29.590Z,70.00
2023-01-12T02:15:15.176Z,69.30
2023-01-12T02:17:53.409Z,69.40
2023-01-12T02:20:37.174Z,69.70
2023-01-12T02:23:40.209Z,69.60
2023-01-12T02:26:44.488Z,69.60
2023-01-12T02:29:35.702Z,69.70
2023-01-12T02:32:07.000Z,69.70
2023-01-12T02:34:38.078Z,69.80
2023-01-12T02:37:10.851Z,69.90
2023-01-12T02:39:41.332Z,69.50
2023-01-12T02:42:30.030Z,69.20
2023-01-12T02:45:01.105Z,69.20
2023-01-12T02:47:34.434Z,69.30
2023-01-12T02:50:03.131Z,69.40
2023-01-12T02:52:32.380Z,69.50
2023-01-12T02:55:00.446Z,69.30
2023-01-12T02:57:28.297Z,69.50
2023-01-12T02:59:56.309Z,69.50
2023-01-12T03:02:24.724Z,69.60
2023-01-12T03:04:55.105Z,69.70
2023-01-12T03:07:36.073Z,69.80
2023-01-12T03:10:17.084Z,69.60
2023-01-12T03:12:45.006Z,69.20
2023-01-12T03:15:13.790Z,69.00
2023-01-12T03:17:44.371Z,69.20
2023-01-12T03:20:16.942Z,69.40
2023-01-12T03:22:44.828Z,69.50
2023-01-12T03:25:14.045Z,69.40
2023-01-12T03:27:43.142Z,69.40
2023-01-12T03:30:13.656Z,69.50
2023-01-12T03:32:41.521Z,69.60
2023-01-12T03:35:09.794Z,69.60
2023-01-12T03:37:40.736Z,69.80
2023-01-12T03:40:11.046Z,69.70
2023-01-12T03:42:39.990Z,69.20
2023-01-12T03:45:11.813Z,69.00
2023-01-12T03:47:39.659Z,69.10
2023-01-12T03:50:10.618Z,69.30
2023-01-12T03:52:40.005Z,69.40
2023-01-12T03:55:09.449Z,69.40
2023-01-12T03:57:37.448Z,69.40
2023-01-12T04:00:05.991Z,69.50
2023-01-12T04:02:40.500Z,69.60
2023-01-12T04:05:09.160Z,69.60
2023-01-12T04:07:37.040Z,69.70
2023-01-12T04:10:07.442Z,69.80
2023-01-12T04:12:35.694Z,69.60
2023-01-12T04:15:03.559Z,69.70
2023-01-12T04:17:31.399Z,69.70
2023-01-12T04:19:59.270Z,69.80
2023-01-12T04:22:44.221Z,69.80
2023-01-12T04:25:13.940Z,70.00
2023-01-12T04:27:47.407Z,69.70
2023-01-12T04:30:15.584Z,69.40
2023-01-12T04:32:43.803Z,69.20
2023-01-12T04:35:12.841Z,69.30
2023-01-12T04:37:40.810Z,69.30
2023-01-12T04:40:09.700Z,69.60
2023-01-12T04:42:56.292Z,69.50
2023-01-12T04:45:24.200Z,69.50
2023-01-12T04:47:52.103Z,69.60
2023-01-12T04:50:20.091Z,69.50
2023-01-12T04:52:48.019Z,69.60
2023-01-12T04:55:15.995Z,69.90
2023-01-12T04:57:46.809Z,69.80
2023-01-12T05:00:14.987Z,69.70
2023-01-12T05:02:42.850Z,69.80
2023-01-12T05:05:10.908Z,69.80
2023-01-12T05:07:58.788Z,69.80
2023-01-12T05:10:25.691Z,69.80
2023-01-12T05:12:54.915Z,69.90
2023-01-12T05:15:22.801Z,69.60
2023-01-12T05:17:50.682Z,69.20
2023-01-12T05:20:18.664Z,68.80
2023-01-12T05:22:48.371Z,68.70
2023-01-12T05:25:16.485Z,68.80
2023-01-12T05:27:44.387Z,69.70
2023-01-12T05:30:13.968Z,68.90
2023-01-12T05:32:42.401Z,68.90
2023-01-12T05:35:10.585Z,69.10
2023-01-12T05:37:38.450Z,69.20
2023-01-12T05:40:07.134Z,69.30
2023-01-12T05:42:52.661Z,69.50
2023-01-12T05:45:21.896Z,69.40
2023-01-12T05:47:53.501Z,69.40
2023-01-12T05:50:21.402Z,69.40
2023-01-12T05:53:08.461Z,69.50
2023-01-12T05:55:37.737Z,69.60
2023-01-12T05:58:05.657Z,69.80
2023-01-12T06:00:34.899Z,69.60
2023-01-12T06:03:03.107Z,69.30
2023-01-12T06:05:31.252Z,69.10
2023-01-12T06:07:59.216Z,69.10
2023-01-12T06:10:27.104Z,69.20
2023-01-12T06:13:12.610Z,69.50
2023-01-12T06:15:41.937Z,69.40
2023-01-12T06:18:09.815Z,69.40
2023-01-12T06:20:37.719Z,69.50
2023-01-12T06:23:05.866Z,69.60
2023-01-12T06:25:33.791Z,69.60
2023-01-12T06:28:01.687Z,69.80
2023-01-12T06:30:29.650Z,69.80
2023-01-12T06:33:01.856Z,69.60
2023-01-12T06:35:30.566Z,69.10
2023-01-12T06:37:58.497Z,68.90
2023-01-12T06:40:26.415Z,69.00
2023-01-12T06:42:54.286Z,69.30
2023-01-12T06:45:22.169Z,69.20
2023-01-12T06:47:52.016Z,69.10
2023-01-12T06:50:21.358Z,69.20
2023-01-12T06:52:49.229Z,69.30
2023-01-12T06:55:17.337Z,69.40
2023-01-12T06:57:45.295Z,70.30
2023-01-12T07:00:14.260Z,69.70
2023-01-12T07:02:42.217Z,69.60
2023-01-12T07:05:10.375Z,69.60
2023-01-12T07:07:40.463Z,69.60
2023-01-12T07:10:09.362Z,69.60
2023-01-12T07:12:37.342Z,69.70
2023-01-12T07:15:05.671Z,69.90
2023-01-12T07:17:33.558Z,69.70
2023-01-12T07:20:01.447Z,69.30
2023-01-12T07:22:30.283Z,68.90
2023-01-12T07:24:59.544Z,68.90
2023-01-12T07:27:27.451Z,68.90
2023-01-12T07:29:55.817Z,69.20
2023-01-12T07:32:26.729Z,69.10
2023-01-12T07:34:54.592Z,69.10
2023-01-12T07:37:22.468Z,69.30
2023-01-12T07:39:50.355Z,69.30
2023-01-12T07:42:25.575Z,69.50
2023-01-12T07:44:53.524Z,69.70
2023-01-12T07:47:21.487Z,69.60
2023-01-12T07:49:49.420Z,69.60
2023-01-12T07:52:17.309Z,69.60
2023-01-12T07:54:45.176Z,69.50
2023-01-12T07:57:13.117Z,69.70
2023-01-12T07:59:42.366Z,69.90
2023-01-12T08:02:13.792Z,69.90
2023-01-12T08:04:41.779Z,69.50
2023-01-12T08:07:10.040Z,69.10
2023-01-12T08:09:37.917Z,69.10
2023-01-12T08:12:06.703Z,69.30
2023-01-12T08:14:37.072Z,69.30
2023-01-12T08:17:07.589Z,69.40
2023-01-12T08:19:38.673Z,69.30
2023-01-12T08:22:08.966Z,69.40
2023-01-12T08:24:37.691Z,69.50
2023-01-12T08:27:06.244Z,69.50
2023-01-12T08:29:36.088Z,69.60
2023-01-12T08:34:39.579Z,69.60
2023-01-12T08:37:09.305Z,69.70
2023-01-12T08:39:37.237Z,69.70
2023-01-12T08:42:05.405Z,69.80
2023-01-12T08:44:34.653Z,69.90
2023-01-12T08:47:02.670Z,70.00
2023-01-12T08:49:31.998Z,69.90
2023-01-12T08:51:59.857Z,69.50
2023-01-12T08:54:27.868Z,69.10
2023-01-12T08:56:55.751Z,69.10
2023-01-12T08:59:23.983Z,69.30
2023-01-12T09:01:52.026Z,69.40
2023-01-12T09:04:19.952Z,69.30
2023-01-12T09:06:49.345Z,69.40
2023-01-12T09:09:19.200Z,69.40
2023-01-12T09:11:47.534Z,69.60
2023-01-12T09:14:15.845Z,69.50
2023-01-12T09:16:43.923Z,69.70
2023-01-12T09:19:11.893Z,69.80
2023-01-12T09:21:40.718Z,69.60
2023-01-12T09:24:10.456Z,69.70
2023-01-12T09:26:39.180Z,69.80
2023-01-12T09:29:07.742Z,69.80
2023-01-12T09:31:36.182Z,69.80
2023-01-12T09:34:04.144Z,70.10
2023-01-12T09:36:33.451Z,69.80
2023-01-12T09:39:02.027Z,70.30
2023-01-12T09:41:49.704Z,69.10
2023-01-12T09:44:37.067Z,69.00
2023-01-12T09:47:06.362Z,69.10
2023-01-12T09:49:36.157Z,69.30
2023-01-12T09:52:14.322Z,69.20
2023-01-12T09:54:42.260Z,69.20
2023-01-12T09:57:28.887Z,69.40
2023-01-12T09:59:58.951Z,69.50
2023-01-12T10:02:27.778Z,69.60
2023-01-12T10:04:55.707Z,69.90
2023-01-12T10:07:23.622Z,69.50
2023-01-12T10:09:51.542Z,69.60
2023-01-12T10:12:23.993Z,69.70
2023-01-12T10:15:23.520Z,69.80
2023-01-12T10:17:53.106Z,69.80
2023-01-12T10:20:24.877Z,69.90
2023-01-12T10:22:54.609Z,69.80
2023-01-12T10:25:26.752Z,69.80
2023-01-12T10:27:56.764Z,69.80
2023-01-12T10:30:30.653Z,69.90
2023-01-12T10:32:58.696Z,70.00
2023-01-12T10:35:26.672Z,70.10
2023-01-12T10:37:55.285Z,69.90
2023-01-12T10:40:29.573Z,69.60
2023-01-12T10:43:32.223Z,69.20
2023-01-12T10:46:11.294Z,68.80
2023-01-12T10:48:40.077Z,68.90
2023-01-12T10:51:08.781Z,69.10
2023-01-12T10:53:38.841Z,69.00
2023-01-12T10:56:14.799Z,69.00
2023-01-12T10:58:47.662Z,69.20
2023-01-12T11:01:15.821Z,69.30
2023-01-12T11:03:43.863Z,69.40
2023-01-12T11:06:25.001Z,69.70
2023-01-12T11:08:52.933Z,69.60
2023-01-12T11:11:25.029Z,69.60
2023-01-12T11:13:58.519Z,69.60
2023-01-12T11:16:27.062Z,69.60
2023-01-12T11:19:04.230Z,69.60
2023-01-12T11:21:33.953Z,69.80
2023-01-12T11:24:04.026Z,69.60
2023-01-12T11:26:34.381Z,69.60
2023-01-12T11:29:07.783Z,69.70
2023-01-12T11:31:38.355Z,70.40
2023-01-12T11:34:09.964Z,69.80
2023-01-12T11:36:39.931Z,70.00
2023-01-12T11:39:11.095Z,69.80
2023-01-12T11:41:40.219Z,69.50
2023-01-12T11:44:13.848Z,69.10
2023-01-12T11:46:43.170Z,68.70
2023-01-12T11:49:13.615Z,68.70
2023-01-12T11:51:42.097Z,69.10
2023-01-12T11:54:11.892Z,69.00
2023-01-12T11:56:53.466Z,68.90
2023-01-12T11:59:24.511Z,69.00
2023-01-12T12:01:55.270Z,69.20
2023-01-12T12:04:31.395Z,69.30
2023-01-12T12:07:06.273Z,69.60
2023-01-12T12:09:43.327Z,69.60
2023-01-12T12:12:14.375Z,69.50
2023-01-12T12:14:49.356Z,69.60
2023-01-12T12:17:20.582Z,69.60
2023-01-12T12:19:53.544Z,69.70
2023-01-12T12:22:31.774Z,69.80
2023-01-12T12:25:16.523Z,69.70
2023-01-12T12:27:56.219Z,69.60
2023-01-12T12:30:40.999Z,69.70
2023-01-12T12:33:12.172Z,69.70
2023-01-12T12:35:45.751Z,69.80
2023-01-12T12:38:21.148Z,70.00
2023-01-12T12:41:13.007Z,69.80
2023-01-12T12:43:58.634Z,69.40
2023-01-12T12:46:32.676Z,69.00
2023-01-12T12:49:02.187Z,68.80
2023-01-12T12:51:31.142Z,69.00
2023-01-12T12:53:59.053Z,69.10
2023-01-12T12:56:26.917Z,69.00
2023-01-12T12:58:55.153Z,68.90
2023-01-12T13:01:58.228Z,69.10
2023-01-12T13:05:02.471Z,70.00
2023-01-12T13:07:31.644Z,69.60
2023-01-12T13:10:22.081Z,69.60
2023-01-12T13:12:58.102Z,69.50
2023-01-12T13:15:29.307Z,69.60
2023-01-12T13:17:58.539Z,69.50
2023-01-12T13:20:53.448Z,69.60
2023-01-12T13:23:47.285Z,69.90
2023-01-12T13:26:39.538Z,69.80
2023-01-12T13:29:39.655Z,69.30
2023-01-12T13:32:35.532Z,69.20
2023-01-12T13:35:05.008Z,69.40
2023-01-12T13:37:38.414Z,69.60
2023-01-12T13:40:12.437Z,69.60
2023-01-12T13:42:57.825Z,69.50
2023-01-12T13:45:25.766Z,69.60
2023-01-12T13:47:53.887Z,69.50
2023-01-12T13:50:24.300Z,69.70
2023-01-12T13:52:58.972Z,69.90
2023-01-12T13:55:28.250Z,69.90
2023-01-12T13:58:00.574Z,69.60
2023-01-12T14:00:29.499Z,69.30
2023-01-12T14:02:57.460Z,69.00
2023-01-12T14:05:37.761Z,69.30
2023-01-12T14:08:50.123Z,69.30
2023-01-12T14:11:32.930Z,69.30
2023-01-12T14:14:28.983Z,69.40
2023-01-12T14:17:28.938Z,69.60
2023-01-12T14:19:56.803Z,69.50
2023-01-12T14:22:25.989Z,69.70
2023-01-12T14:24:53.900Z,69.80
2023-01-12T14:27:23.108Z,69.70
2023-01-12T14:29:51.324Z,69.70
2023-01-12T14:32:19.703Z,69.80
2023-01-12T14:34:49.580Z,69.90
2023-01-12T14:37:26.858Z,69.90
2023-01-12T14:39:54.769Z,70.00
2023-01-12T14:42:39.327Z,69.90
2023-01-12T14:45:38.955Z,69.90
2023-01-12T14:48:23.481Z,69.90
2023-01-12T14:51:01.962Z,70.00
2023-01-12T14:53:35.414Z,70.10
2023-01-12T14:56:12.590Z,70.10
2023-01-12T14:58:40.506Z,69.70
2023-01-12T15:01:08.441Z,69.30
2023-01-12T15:03:43.878Z,69.00
2023-01-12T15:06:15.575Z,69.00
2023-01-12T15:08:55.318Z,69.10
2023-01-12T15:11:34.489Z,69.30
2023-01-12T15:14:02.523Z,69.30
2023-01-12T15:16:47.857Z,69.40
2023-01-12T15:19:33.342Z,69.40
2023-01-12T15:22:18.739Z,69.60
2023-01-12T15:25:05.735Z,69.70
2023-01-12T15:27:33.723Z,69.70
2023-01-12T15:30:01.635Z,69.70
2023-01-12T15:32:46.201Z,69.80
2023-01-12T15:35:16.425Z,69.80
2023-01-12T15:37:44.359Z,69.90
2023-01-12T15:40:15.346Z,70.00
2023-01-12T15:42:43.265Z,70.10
2023-01-12T15:45:19.755Z,69.80
2023-01-12T15:47:48.215Z,69.40
2023-01-12T15:50:16.369Z,69.00
2023-01-12T15:52:44.236Z,69.00
2023-01-12T15:55:16.501Z,69.30
2023-01-12T15:57:44.457Z,70.00
2023-01-12T16:00:16.008Z,69.20
2023-01-12T16:02:45.250Z,69.30
2023-01-12T16:05:13.703Z,69.50
2023-01-12T16:07:41.618Z,69.60
2023-01-12T16:10:10.207Z,69.70
2023-01-12T16:12:39.442Z,69.80
2023-01-12T16:15:08.892Z,69.70
2023-01-12T16:17:36.794Z,69.80
2023-01-12T16:20:05.164Z,69.90
2023-01-12T16:22:33.403Z,69.90
2023-01-12T16:25:01.329Z,70.10
2023-01-12T16:27:29.235Z,70.10
2023-01-12T16:29:58.534Z,70.10
2023-01-12T16:32:26.796Z,69.70
2023-01-12T16:34:54.747Z,69.40
2023-01-12T16:37:26.640Z,69.50
2023-01-12T16:39:55.411Z,69.50
2023-01-12T16:42:23.437Z,69.70
2023-01-12T16:44:51.299Z,69.70
2023-01-12T16:47:20.966Z,69.60
2023-01-12T16:49:49.495Z,69.70
2023-01-12T16:52:18.427Z,69.80
2023-01-12T16:54:46.475Z,69.80
2023-01-12T16:57:15.221Z,70.10
2023-01-12T16:59:43.243Z,69.90
2023-01-12T17:02:12.603Z,69.90
2023-01-12T17:04:43.645Z,69.80
2023-01-12T17:07:11.705Z,69.90
2023-01-12T17:09:40.032Z,70.00
2023-01-12T17:12:08.253Z,70.10
2023-01-12T17:14:36.606Z,70.10
2023-01-12T17:17:05.650Z,69.80
2023-01-12T17:19:34.509Z,69.30
2023-01-12T17:22:06.197Z,69.00
2023-01-12T17:24:34.483Z,69.00
2023-01-12T17:27:02.553Z,69.30
2023-01-12T17:29:30.694Z,69.30
2023-01-12T17:32:04.075Z,69.30
2023-01-12T17:34:36.406Z,69.30
2023-01-12T17:37:08.095Z,69.50
2023-01-12T17:39:36.267Z,69.50
2023-01-12T17:42:22.522Z,69.60
2023-01-12T17:44:50.384Z,69.70
2023-01-12T17:47:18.344Z,69.50
2023-01-12T17:49:47.729Z,69.60
2023-01-12T17:52:17.699Z,69.70
2023-01-12T17:54:45.671Z,69.80
2023-01-12T17:57:13.571Z,69.80
2023-01-12T17:59:41.476Z,70.10
2023-01-12T18:02:10.874Z,69.90
2023-01-12T18:04:38.813Z,69.40
2023-01-12T18:07:06.728Z,69.30
2023-01-12T18:09:36.757Z,69.20
2023-01-12T18:12:05.177Z,69.40
2023-01-12T18:14:33.229Z,69.60
2023-01-12T18:17:01.107Z,69.50
2023-01-12T18:19:29.932Z,69.50
2023-01-12T18:21:57.858Z,69.60
2023-01-12T18:24:25.780Z,69.60
2023-01-12T18:26:54.993Z,69.60
2023-01-12T18:29:22.899Z,69.80
2023-01-12T18:31:50.819Z,69.80
2023-01-12T18:34:19.197Z,69.60
2023-01-12T18:36:47.073Z,69.30
2023-01-12T18:39:16.917Z,69.20
2023-01-12T18:42:02.106Z,69.30
2023-01-12T18:44:32.290Z,69.30
2023-01-12T18:47:17.619Z,69.40
2023-01-12T18:49:46.186Z,69.30
2023-01-12T18:52:32.014Z,69.40
2023-01-12T18:54:59.963Z,69.50
2023-01-12T18:57:28.833Z,69.60
2023-01-12T19:00:00.310Z,69.70
2023-01-12T19:02:29.770Z,69.70
2023-01-12T19:05:16.584Z,69.60
2023-01-12T19:08:07.180Z,69.60
2023-01-12T19:10:35.175Z,69.70
2023-01-12T19:13:25.993Z,69.70
2023-01-12T19:16:12.853Z,70.00
2023-01-12T19:18:41.026Z,69.90
2023-01-12T19:21:26.823Z,69.40
2023-01-12T19:24:12.466Z,69.10
2023-01-12T19:26:57.681Z,69.00
2023-01-12T19:29:25.585Z,69.00
2023-01-12T19:31:54.786Z,69.20
2023-01-12T19:34:24.723Z,69.20
2023-01-12T19:36:52.868Z,69.30
2023-01-12T19:39:30.486Z,69.30
2023-01-12T19:42:15.669Z,69.40
2023-01-12T19:44:45.789Z,69.60
2023-01-12T19:47:15.019Z,69.70
2023-01-12T19:49:42.900Z,69.70
2023-01-12T19:52:10.797Z,69.70
2023-01-12T19:54:38.692Z,69.70
2023-01-12T19:57:06.580Z,69.80
2023-01-12T19:59:34.450Z,69.90
2023-01-12T20:02:02.430Z,70.10
2023-01-12T20:04:31.737Z,69.80
2023-01-12T20:06:59.639Z,69.50
2023-01-12T20:09:27.809Z,69.50
2023-01-12T20:11:55.681Z,69.60
2023-01-12T20:14:23.589Z,69.70
2023-01-12T20:16:51.426Z,69.80
2023-01-12T20:19:20.527Z,69.70
2023-01-12T20:21:49.798Z,69.60
2023-01-12T20:24:17.796Z,69.80
2023-01-12T20:26:45.730Z,69.80
2023-01-12T20:29:13.631Z,69.90
2023-01-12T20:31:41.655Z,70.10
2023-01-12T20:34:10.098Z,69.90
2023-01-12T20:36:38.891Z,69.60
2023-01-12T20:39:10.939Z,69.20
2023-01-12T20:41:39.100Z,69.10
2023-01-12T20:44:07.285Z,69.10
2023-01-12T20:46:35.482Z,69.40
2023-01-12T20:49:03.411Z,69.40
2023-01-12T20:51:31.329Z,69.40
2023-01-12T20:54:01.340Z,69.50
2023-01-12T20:56:30.610Z,69.60
2023-01-12T20:58:58.541Z,69.60
2023-01-12T21:01:26.607Z,69.90
2023-01-12T21:03:54.494Z,69.80
2023-01-12T21:06:22.697Z,69.80
2023-01-12T21:08:50.626Z,69.90
2023-01-12T21:11:19.320Z,69.90
2023-01-12T21:13:48.614Z,70.10
2023-01-12T21:16:17.875Z,70.10
2023-01-12T21:18:45.875Z,70.20
2023-01-12T21:21:13.787Z,70.10
2023-01-12T21:23:41.670Z,70.10
2023-01-12T21:26:10.844Z,70.10
2023-01-12T21:28:39.187Z,70.20
2023-01-12T21:31:09.330Z,70.30
2023-01-12T21:33:37.196Z,70.30
2023-01-12T21:36:05.440Z,70.10
2023-01-12T21:38:33.522Z,69.60
2023-01-12T21:41:02.348Z,69.40
2023-01-12T21:43:30.376Z,69.40
2023-01-12T21:46:03.568Z,69.50
2023-01-12T21:48:32.925Z,69.60
2023-01-12T21:51:04.383Z,69.40
2023-01-12T21:53:32.302Z,69.60
2023-01-12T21:56:01.049Z,69.60
2023-01-12T21:58:29.763Z,69.70
2023-01-12T22:00:57.952Z,69.80
2023-01-12T22:03:26.050Z,70.00
2023-01-12T22:05:55.586Z,69.80
2023-01-12T22:08:23.483Z,69.80
2023-01-12T22:10:51.411Z,69.80
2023-01-12T22:13:19.295Z,69.90
2023-01-12T22:15:50.827Z,70.10
2023-01-12T22:18:18.778Z,70.20
2023-01-12T22:20:46.638Z,70.00
2023-01-12T22:23:16.367Z,69.60
2023-01-12T22:25:44.256Z,69.30
2023-01-12T22:28:12.200Z,69.30
2023-01-12T22:30:40.081Z,69.40
2023-01-12T22:33:07.985Z,69.60
2023-01-12T22:35:36.151Z,69.50
2023-01-12T22:38:04.122Z,69.50
2023-01-12T22:40:33.340Z,69.60
2023-01-12T22:43:18.595Z,69.70
2023-01-12T22:45:46.500Z,70.40
2023-01-12T22:48:14.396Z,69.90
2023-01-12T22:50:42.234Z,69.90
2023-01-12T22:53:10.559Z,69.80
2023-01-12T22:55:41.213Z,69.90
2023-01-12T22:58:09.155Z,69.90
2023-01-12T23:00:39.693Z,70.00
2023-01-12T23:03:09.338Z,70.10
2023-01-12T23:05:38.505Z,70.90
2023-01-12T23:08:06.780Z,70.00
2023-01-12T23:10:34.716Z,69.60
2023-01-12T23:13:15.515Z,69.30
2023-01-12T23:15:45.734Z,69.40
2023-01-12T23:18:13.922Z,69.50
2023-01-12T23:20:42.535Z,69.70
2023-01-12T23:23:10.709Z,69.60
2023-01-12T23:25:39.212Z,69.60
2023-01-12T23:28:08.568Z,69.80
2023-01-12T23:30:36.437Z,69.80
2023-01-12T23:33:04.926Z,69.90
2023-01-12T23:35:35.422Z,70.10
2023-01-12T23:38:03.316Z,70.10
2023-01-12T23:40:31.180Z,69.80
2023-01-12T23:42:59.409Z,69.40
2023-01-12T23:45:28.656Z,69.30
2023-01-12T23:47:56.882Z,69.30
2023-01-12T23:50:24.943Z,69.50
2023-01-12T23:52:52.791Z,69.60
2023-01-12T23:55:20.658Z,69.50
2023-01-12T23:57:48.694Z,69.70
